createdAt,value
2022-11-28T00:02:02.984Z,3.70
2022-11-28T00:07:05.561Z,3.72
2022-11-28T00:12:08.221Z,3.72
2022-11-28T00:17:10.680Z,3.68
2022-11-28T00:22:13.168Z,3.63
2022-11-28T00:27:15.640Z,3.61
2022-11-28T00:32:20.551Z,3.58
2022-11-28T00:37:23.041Z,3.59
2022-11-28T00:42:25.574Z,3.64
2022-11-28T00:47:28.067Z,3.69
2022-11-28T00:52:32.719Z,3.68
2022-11-28T00:57:35.218Z,3.65
2022-11-28T01:02:37.820Z,3.63
2022-11-28T01:07:42.435Z,3.64
2022-11-28T01:12:45.055Z,3.67
2022-11-28T01:17:47.593Z,3.68
2022-11-28T01:22:50.080Z,3.69
2022-11-28T01:27:52.591Z,3.73
2022-11-28T01:32:55.115Z,3.74
2022-11-28T01:37:57.564Z,3.70
2022-11-28T01:43:00.086Z,3.69
2022-11-28T01:48:03.825Z,3.69
2022-11-28T01:53:09.295Z,3.65
2022-11-28T01:58:12.684Z,3.64
2022-11-28T02:03:20.838Z,3.66
2022-11-28T02:08:25.427Z,3.68
2022-11-28T02:13:58.216Z,3.69
2022-11-28T02:19:25.368Z,3.69
2022-11-28T02:24:30.794Z,3.67
2022-11-28T02:29:36.172Z,3.69
2022-11-28T02:34:54.584Z,3.70
2022-11-28T02:40:05.576Z,3.71
2022-11-28T02:45:13.594Z,3.69
2022-11-28T02:50:22.059Z,3.70
2022-11-28T02:55:26.350Z,3.65
2022-11-28T03:00:32.005Z,3.61
2022-11-28T03:05:46.108Z,3.59
2022-11-28T03:10:54.482Z,3.58
2022-11-28T03:16:07.640Z,3.58
2022-11-28T03:21:17.739Z,3.55
2022-11-28T03:26:34.923Z,3.55
2022-11-28T03:31:43.088Z,3.53
2022-11-28T03:36:52.320Z,3.47
2022-11-28T03:41:59.741Z,3.37
2022-11-28T03:47:05.590Z,3.30
2022-11-28T03:52:14.764Z,3.24
2022-11-28T03:57:25.100Z,3.26
2022-11-28T04:02:34.993Z,3.23
2022-11-28T04:07:45.924Z,3.20
2022-11-28T04:12:54.481Z,3.13
2022-11-28T04:18:00.624Z,3.04
2022-11-28T04:23:09.732Z,2.98
2022-11-28T04:28:18.574Z,2.96
2022-11-28T04:33:24.751Z,2.96
2022-11-28T04:38:29.596Z,3.00
2022-11-28T04:43:37.201Z,3.02
2022-11-28T04:48:39.750Z,3.00
2022-11-28T04:53:45.321Z,2.97
2022-11-28T04:58:50.506Z,2.96
2022-11-28T05:03:54.134Z,2.93
2022-11-28T05:08:56.720Z,2.92
2022-11-28T05:13:59.355Z,2.80
2022-11-28T05:19:01.918Z,2.73
2022-11-28T05:24:04.661Z,2.72
2022-11-28T05:29:07.119Z,2.72
2022-11-28T05:34:09.605Z,2.71
2022-11-28T05:39:12.233Z,2.72
2022-11-28T05:44:16.850Z,2.73
2022-11-28T05:49:21.555Z,2.74
2022-11-28T05:54:24.277Z,2.73
2022-11-28T05:59:26.798Z,2.69
2022-11-28T06:04:29.337Z,2.65
2022-11-28T06:09:31.917Z,2.64
2022-11-28T06:14:34.499Z,2.61
2022-11-28T06:19:37.186Z,2.59
2022-11-28T06:24:39.635Z,2.52
2022-11-28T06:29:42.439Z,2.50
2022-11-28T06:34:45.109Z,2.50
2022-11-28T06:39:47.657Z,2.51
2022-11-28T06:44:50.380Z,2.49
2022-11-28T06:49:52.967Z,2.46
2022-11-28T06:54:57.728Z,2.39
2022-11-28T07:00:00.342Z,2.41
2022-11-28T07:05:03.175Z,2.40
2022-11-28T07:10:06.569Z,2.41
2022-11-28T07:15:09.847Z,2.41
2022-11-28T07:20:12.878Z,2.41
2022-11-28T07:25:15.970Z,2.41
2022-11-28T07:30:19.966Z,2.40
2022-11-28T07:35:22.476Z,2.38
2022-11-28T07:40:25.020Z,2.44
2022-11-28T07:45:41.955Z,2.57
2022-11-28T07:50:50.298Z,2.66
2022-11-28T07:55:52.916Z,2.70
2022-11-28T08:00:55.431Z,2.79
2022-11-28T08:06:02.868Z,2.89
2022-11-28T08:11:08.265Z,2.96
2022-11-28T08:16:14.514Z,3.02
2022-11-28T08:21:20.041Z,3.11
2022-11-28T08:26:28.913Z,3.13
2022-11-28T08:31:35.065Z,3.12
2022-11-28T08:36:40.020Z,3.13
2022-11-28T08:41:42.729Z,3.18
2022-11-28T08:46:45.313Z,3.32
2022-11-28T08:51:47.848Z,3.47
2022-11-28T08:56:50.771Z,3.51
2022-11-28T09:01:54.249Z,3.51
2022-11-28T09:06:56.799Z,3.52
2022-11-28T09:11:59.307Z,3.58
2022-11-28T09:17:02.069Z,3.60
2022-11-28T09:22:04.596Z,3.65
2022-11-28T09:27:07.032Z,3.72
2022-11-28T09:32:09.518Z,3.77
2022-11-28T09:37:12.158Z,3.88
2022-11-28T09:42:27.473Z,3.97
2022-11-28T09:47:32.698Z,4.03
2022-11-28T09:52:47.456Z,4.01
2022-11-28T09:57:52.239Z,4.05
2022-11-28T10:03:00.588Z,4.19
2022-11-28T10:08:13.920Z,4.42
2022-11-28T10:13:24.391Z,4.65
2022-11-28T10:18:35.062Z,4.90
2022-11-28T10:23:43.809Z,5.11
2022-11-28T10:28:50.316Z,5.35
2022-11-28T10:34:17.384Z,5.65
2022-11-28T10:39:19.982Z,5.67
2022-11-28T10:44:31.915Z,5.46
2022-11-28T10:49:50.260Z,5.32
2022-11-28T10:55:07.305Z,5.26
2022-11-28T11:00:13.737Z,5.25
2022-11-28T11:05:36.525Z,5.24
2022-11-28T11:10:46.603Z,5.22
2022-11-28T11:16:02.297Z,5.21
2022-11-28T11:21:10.137Z,5.20
2022-11-28T11:26:18.500Z,5.19
2022-11-28T11:31:28.264Z,5.17
2022-11-28T11:36:34.533Z,5.20
2022-11-28T11:41:39.999Z,5.19
2022-11-28T11:46:48.710Z,5.14
2022-11-28T11:51:59.327Z,5.06
2022-11-28T11:57:30.838Z,5.00
2022-11-28T12:02:35.105Z,5.05
2022-11-28T12:07:48.720Z,5.06
2022-11-28T12:12:51.255Z,4.95
2022-11-28T12:17:59.625Z,4.94
2022-11-28T12:23:04.706Z,4.95
2022-11-28T12:28:12.238Z,4.89
2022-11-28T12:33:18.827Z,4.86
2022-11-28T12:38:36.499Z,4.82
2022-11-28T12:43:42.589Z,4.84
2022-11-28T12:48:53.673Z,4.76
2022-11-28T12:54:06.279Z,4.67
2022-11-28T12:59:14.985Z,4.63
2022-11-28T13:04:27.197Z,4.67
2022-11-28T13:09:34.457Z,4.67
2022-11-28T13:14:40.828Z,4.65
2022-11-28T13:19:52.067Z,4.62
2022-11-28T13:26:05.551Z,4.58
2022-11-28T13:31:22.935Z,4.55
2022-11-28T13:42:28.789Z,4.55
2022-11-28T13:47:34.425Z,4.59
2022-11-28T13:52:42.376Z,4.48
2022-11-28T13:57:44.882Z,4.23
2022-11-28T14:02:58.837Z,3.91
2022-11-28T14:08:03.908Z,3.61
2022-11-28T14:13:29.658Z,3.40
2022-11-28T14:18:57.122Z,3.23
2022-11-28T14:24:01.079Z,3.12
2022-11-28T14:29:06.049Z,3.02
2022-11-28T14:34:31.397Z,2.94
2022-11-28T14:39:34.881Z,2.91
2022-11-28T14:44:45.610Z,2.94
2022-11-28T14:49:48.929Z,2.91
2022-11-28T14:54:53.473Z,2.91
2022-11-28T14:59:58.491Z,2.92
2022-11-28T15:05:04.891Z,2.98
2022-11-28T15:10:16.254Z,3.02
2022-11-28T15:15:20.376Z,3.02
2022-11-28T15:20:29.788Z,3.00
2022-11-28T15:25:37.145Z,3.00
2022-11-28T15:30:46.149Z,3.00
2022-11-28T15:36:13.007Z,3.00
2022-11-28T15:41:21.096Z,2.96
2022-11-28T15:46:29.482Z,2.93
2022-11-28T15:51:35.456Z,2.94
2022-11-28T15:56:37.951Z,2.96
2022-11-28T16:01:40.690Z,2.96
2022-11-28T16:06:50.270Z,2.99
2022-11-28T16:11:54.271Z,3.02
2022-11-28T16:16:59.287Z,3.03
2022-11-28T16:22:18.928Z,3.01
2022-11-28T16:27:27.298Z,3.03
2022-11-28T16:32:37.872Z,3.10
2022-11-28T16:37:40.477Z,3.12
2022-11-28T16:42:52.295Z,3.11
2022-11-28T16:48:00.243Z,3.11
2022-11-28T16:53:03.606Z,3.17
2022-11-28T16:58:11.428Z,3.22
2022-11-28T17:03:19.788Z,3.23
2022-11-28T17:08:28.981Z,3.26
2022-11-28T17:13:33.075Z,3.28
2022-11-28T17:18:35.526Z,3.30
2022-11-28T17:23:38.920Z,3.32
2022-11-28T17:28:41.501Z,3.36
2022-11-28T17:33:44.983Z,3.39
2022-11-28T17:38:47.574Z,3.42
2022-11-28T17:43:50.087Z,3.44
2022-11-28T17:48:52.611Z,3.48
2022-11-28T17:53:55.094Z,3.53
2022-11-28T17:58:57.613Z,3.54
2022-11-28T18:04:00.151Z,3.55
2022-11-28T18:09:11.392Z,3.56
2022-11-28T18:14:17.249Z,3.59
2022-11-28T18:19:22.255Z,3.60
2022-11-28T18:24:24.741Z,3.57
2022-11-28T18:29:27.202Z,3.54
2022-11-28T18:34:29.769Z,3.54
2022-11-28T18:39:33.073Z,3.55
2022-11-28T18:44:35.598Z,3.53
2022-11-28T18:49:38.097Z,3.52
2022-11-28T18:54:40.579Z,3.53
2022-11-28T18:59:49.926Z,3.50
2022-11-28T19:04:55.705Z,3.48
2022-11-28T19:09:58.193Z,3.43
2022-11-28T19:15:02.659Z,3.41
2022-11-28T19:20:06.244Z,3.40
2022-11-28T19:25:08.923Z,3.37
2022-11-28T19:30:11.850Z,3.35
2022-11-28T19:35:14.499Z,3.33
2022-11-28T19:40:17.013Z,3.33
2022-11-28T19:45:19.992Z,3.30
2022-11-28T19:50:22.520Z,3.27
2022-11-28T19:55:25.057Z,3.28
2022-11-28T20:00:27.563Z,3.30
2022-11-28T20:05:31.636Z,3.31
2022-11-28T20:10:36.423Z,3.29
2022-11-28T20:15:38.873Z,3.32
2022-11-28T20:20:41.406Z,3.30
2022-11-28T20:25:43.883Z,3.30
2022-11-28T20:30:46.363Z,3.32
2022-11-28T20:35:48.912Z,3.32
2022-11-28T20:40:51.397Z,3.29
2022-11-28T20:45:54.082Z,3.24
2022-11-28T20:50:56.782Z,3.18
2022-11-28T20:56:02.784Z,3.15
2022-11-28T21:01:05.731Z,3.15
2022-11-28T21:06:08.407Z,3.13
2022-11-28T21:11:30.574Z,3.11
2022-11-28T21:16:37.503Z,3.12
2022-11-28T21:21:42.684Z,3.13
2022-11-28T21:26:51.063Z,3.12
2022-11-28T21:31:55.931Z,3.07
2022-11-28T21:36:58.501Z,3.04
2022-11-28T21:42:02.163Z,3.01
2022-11-28T21:47:05.435Z,3.00
2022-11-28T21:52:09.327Z,2.97
2022-11-28T21:57:11.817Z,2.91
2022-11-28T22:02:14.942Z,2.90
2022-11-28T22:07:17.713Z,2.90
2022-11-28T22:12:20.319Z,2.85
2022-11-28T22:17:22.841Z,2.81
2022-11-28T22:22:27.427Z,2.82
2022-11-28T22:27:31.989Z,2.85
2022-11-28T22:32:34.554Z,2.87
2022-11-28T22:37:37.106Z,2.82
2022-11-28T22:42:39.597Z,2.80
2022-11-28T22:47:42.116Z,2.78
2022-11-28T22:52:44.663Z,2.78
2022-11-28T22:57:47.253Z,2.74
2022-11-28T23:02:49.893Z,2.72
2022-11-28T23:07:52.659Z,2.70
2022-11-28T23:12:57.511Z,2.69
2022-11-28T23:18:00.043Z,2.65
2022-11-28T23:23:02.543Z,2.61
2022-11-28T23:28:05.021Z,2.58
2022-11-28T23:33:07.590Z,2.56
2022-11-28T23:38:10.112Z,2.56
2022-11-28T23:43:12.623Z,2.53
2022-11-28T23:48:16.390Z,2.49
2022-11-28T23:53:19.065Z,2.47
2022-11-28T23:58:24.061Z,2.48
